Time;durP1;ratioP1;P1;durP2;ratioP2;P2;SDS_P1;SDS_P2;PMS_P1;PMS_P2;Temp;Humidity;BMP_temperature;BMP_pressure;BME280_temperature;BME280_humidity;BME280_pressure;Samples;Min_cycle;Max_cycle;Signal;HPM_P1;HPM_P2
2021/12/10 00:01:06;;;;;;;71.80;35.10;;;;;;;0.00;76.62;97787.23;103374;1313;107884;-74
2021/12/10 00:03:39;;;;;;;75.90;36.20;;;;;;;-0.01;76.63;97788.66;103296;1313;97130;-73
2021/12/10 00:06:12;;;;;;;71.90;34.40;;;;;;;-0.01;76.61;97784.48;103338;1317;97889;-73
2021/12/10 00:08:44;;;;;;;64.90;34.10;;;;;;;-0.01;76.64;97781.87;103423;1314;111471;-74
2021/12/10 00:11:23;;;;;;;69.20;33.60;;;;;;;-0.01;76.59;97784.16;103420;1316;95443;-74
2021/12/10 00:13:51;;;;;;;73.00;35.70;;;;;;;-0.02;76.69;97785.77;103420;1314;108546;-74
2021/12/10 00:16:20;;;;;;;71.00;35.50;;;;;;;-0.01;76.71;97781.73;103428;1318;97882;-74
2021/12/10 00:18:55;;;;;;;74.10;36.20;;;;;;;-0.00;76.78;97778.38;103459;1313;97880;-73
2021/12/10 00:21:26;;;;;;;73.00;34.00;;;;;;;0.00;76.71;97777.85;103470;1314;111581;-73
2021/12/10 00:23:56;;;;;;;70.70;34.10;;;;;;;0.02;76.65;97766.76;103445;1314;97890;-74
2021/12/10 00:26:24;;;;;;;71.30;34.50;;;;;;;0.03;76.66;97763.04;103451;1314;107854;-73
2021/12/10 00:29:00;;;;;;;74.10;34.60;;;;;;;0.03;76.68;97760.94;103413;1313;95258;-73
2021/12/10 00:34:23;;;;;;;68.60;33.90;;;;;;;0.04;76.76;97755.84;103449;1314;111586;-74
2021/12/10 00:36:55;;;;;;;72.40;34.90;;;;;;;0.04;76.66;97751.68;103456;1317;97854;-73
2021/12/10 00:39:35;;;;;;;69.80;32.80;;;;;;;0.04;76.59;97754.84;103443;1313;107906;-73
2021/12/10 00:42:08;;;;;;;66.30;33.50;;;;;;;0.04;76.67;97743.66;103375;1313;97892;-72
2021/12/10 00:44:36;;;;;;;70.30;34.50;;;;;;;0.03;76.68;97741.44;103461;1319;97782;-72
2021/12/10 00:47:05;;;;;;;72.20;34.10;;;;;;;0.00;76.63;97736.67;103376;1314;111528;-74
2021/12/10 00:49:33;;;;;;;71.80;34.60;;;;;;;-0.02;76.59;97737.52;103287;1313;97876;-73
2021/12/10 00:52:04;;;;;;;69.50;34.90;;;;;;;-0.01;76.70;97746.70;103291;1316;107893;-73
2021/12/10 00:54:33;;;;;;;74.50;35.50;;;;;;;0.01;76.75;97757.55;103302;1314;97910;-73
2021/12/10 00:57:03;;;;;;;68.80;34.70;;;;;;;0.02;76.75;97759.08;103304;1317;97951;-73
2021/12/10 00:59:31;;;;;;;73.30;35.00;;;;;;;-0.01;76.78;97752.96;103317;1314;111067;-73
2021/12/10 01:01:59;;;;;;;72.90;35.80;;;;;;;0.00;76.68;97753.44;103351;1314;95250;-73
2021/12/10 01:04:32;;;;;;;69.50;36.10;;;;;;;0.00;76.75;97753.27;103303;1316;108255;-73
2021/12/10 01:07:06;;;;;;;71.20;35.40;;;;;;;-0.02;76.64;97748.98;103302;1313;98087;-74
2021/12/10 01:09:39;;;;;;;73.60;37.10;;;;;;;-0.02;76.72;97742.73;103180;1317;97972;-73
2021/12/10 01:12:21;;;;;;;71.40;35.90;;;;;;;-0.03;76.72;97737.71;103303;1313;111580;-74
2021/12/10 01:15:07;;;;;;;74.30;36.00;;;;;;;-0.02;76.73;97735.95;103104;1316;95901;-74
2021/12/10 01:28:51;;;;;;;74.00;35.20;;;;;;;0.03;76.84;97730.29;103310;1315;98679;-74
2021/12/10 01:31:21;;;;;;;74.00;34.30;;;;;;;0.03;76.77;97720.15;103327;1313;106825;-74
2021/12/10 01:33:51;;;;;;;73.10;38.00;;;;;;;0.04;76.71;97728.15;103438;1313;98001;-74
2021/12/10 01:36:22;;;;;;;73.40;35.50;;;;;;;0.05;76.64;97728.27;103373;1317;97873;-73
2021/12/10 01:38:53;;;;;;;75.20;36.80;;;;;;;0.06;76.72;97730.83;103343;1317;111471;-74
2021/12/10 01:41:25;;;;;;;74.10;36.80;;;;;;;0.07;76.77;97724.85;103338;1313;95274;-76
2021/12/10 01:44:01;;;;;;;72.70;35.10;;;;;;;0.08;76.74;97723.05;103326;1313;107840;-73
2021/12/10 01:46:37;;;;;;;70.30;36.30;;;;;;;0.09;76.79;97718.63;103413;1313;97924;-75
2021/12/10 01:49:08;;;;;;;72.40;35.00;;;;;;;0.10;76.71;97722.61;103309;1313;97045;-75
2021/12/10 01:51:40;;;;;;;71.20;34.60;;;;;;;0.09;76.78;97722.33;103345;1314;111480;-75
2021/12/10 01:54:13;;;;;;;73.10;36.70;;;;;;;0.10;76.72;97720.33;103313;1319;96441;-77
2021/12/10 01:56:42;;;;;;;72.90;37.20;;;;;;;0.11;76.69;97723.58;103309;1314;107840;-75
2021/12/10 01:59:12;;;;;;;72.20;34.20;;;;;;;0.12;76.69;97713.95;103430;1313;95630;-76
2021/12/10 02:01:46;;;;;;;71.60;35.80;;;;;;;0.14;76.77;97709.34;103438;1313;96704;-77
2021/12/10 02:04:17;;;;;;;71.70;35.70;;;;;;;0.16;76.72;97715.33;103330;1313;111094;-76
2021/12/10 02:06:46;;;;;;;72.10;35.30;;;;;;;0.17;76.78;97721.76;103344;1313;97879;-75
2021/12/10 02:09:15;;;;;;;68.70;35.50;;;;;;;0.18;76.87;97726.05;103406;1314;107839;-73
2021/12/10 02:11:44;;;;;;;76.60;36.70;;;;;;;0.18;76.70;97719.39;103386;1313;98724;-73
2021/12/10 02:14:13;;;;;;;67.80;35.60;;;;;;;0.20;76.82;97714.93;103342;1313;97889;-75
2021/12/10 02:16:43;;;;;;;71.10;35.30;;;;;;;0.22;76.80;97708.19;103388;1313;111542;-76
2021/12/10 02:19:14;;;;;;;72.90;35.30;;;;;;;0.23;76.84;97698.02;103395;1318;97979;-74
2021/12/10 02:21:42;;;;;;;70.10;34.10;;;;;;;0.24;76.84;97698.84;103440;1313;106832;-73
2021/12/10 02:24:11;;;;;;;72.20;36.90;;;;;;;0.26;76.81;97698.23;103423;1317;97963;-73
2021/12/10 02:26:47;;;;;;;73.50;36.50;;;;;;;0.26;76.75;97694.21;103396;1316;97057;-73
2021/12/10 02:29:20;;;;;;;71.10;35.50;;;;;;;0.27;76.91;97698.35;103393;1316;111571;-74
2021/12/10 02:31:49;;;;;;;72.60;36.80;;;;;;;0.30;76.85;97695.42;103377;1313;97979;-77
2021/12/10 02:34:17;;;;;;;77.40;36.70;;;;;;;0.32;76.79;97699.15;103370;1316;107754;-74
2021/12/10 02:36:47;;;;;;;73.80;37.80;;;;;;;0.34;76.89;97701.13;103340;1317;97791;-73
2021/12/10 02:39:20;;;;;;;74.70;37.30;;;;;;;0.35;76.82;97690.60;103194;1319;97899;-73
2021/12/10 02:41:50;;;;;;;73.70;37.50;;;;;;;0.36;76.89;97690.92;103319;1313;112181;-73
2021/12/10 02:44:23;;;;;;;72.20;37.00;;;;;;;0.36;76.87;97698.25;103305;1313;95180;-73
2021/12/10 02:46:51;;;;;;;72.20;36.90;;;;;;;0.37;76.78;97696.64;103246;1310;219215;-73
2021/12/10 02:49:19;;;;;;;68.00;34.90;;;;;;;0.37;76.88;97697.48;103371;1319;97908;-74
2021/12/10 02:51:47;;;;;;;77.10;35.70;;;;;;;0.36;76.80;97701.73;103416;1313;95323;-75
2021/12/10 02:54:21;;;;;;;74.90;37.50;;;;;;;0.35;76.73;97703.16;103418;1314;111465;-77
2021/12/10 02:56:51;;;;;;;69.10;36.20;;;;;;;0.36;76.87;97700.14;103472;1317;95204;-74
2021/12/10 02:59:19;;;;;;;75.20;36.50;;;;;;;0.38;76.86;97700.92;103428;1314;108021;-75
2021/12/10 03:01:50;;;;;;;67.70;34.10;;;;;;;0.40;76.81;97701.89;103419;1314;98167;-73
2021/12/10 03:04:19;;;;;;;73.50;36.40;;;;;;;0.40;76.84;97701.15;103423;1313;95358;-73
2021/12/10 03:06:53;;;;;;;67.30;34.10;;;;;;;0.41;76.93;97707.02;103338;1313;111525;-73
2021/12/10 03:09:24;;;;;;;69.60;34.40;;;;;;;0.42;76.77;97702.98;103363;1317;98081;-73
2021/12/10 03:11:56;;;;;;;70.80;35.70;;;;;;;0.41;76.85;97702.64;103396;1316;107824;-73
2021/12/10 03:14:29;;;;;;;64.60;33.60;;;;;;;0.42;76.73;97701.39;103399;1316;98030;-74
2021/12/10 03:17:01;;;;;;;73.80;34.40;;;;;;;0.42;76.76;97700.35;103379;1313;97872;-74
2021/12/10 03:19:29;;;;;;;69.50;32.90;;;;;;;0.42;76.86;97696.85;103412;1319;111670;-73
2021/12/10 03:21:58;;;;;;;71.60;35.90;;;;;;;0.43;76.81;97700.98;103426;1317;97904;-74
2021/12/10 03:24:28;;;;;;;72.60;35.70;;;;;;;0.44;76.82;97698.52;103381;1319;108904;-74
2021/12/10 03:27:02;;;;;;;73.50;35.10;;;;;;;0.45;76.77;97694.98;103415;1313;97948;-74
2021/12/10 03:29:33;;;;;;;71.70;34.20;;;;;;;0.45;76.82;97693.23;103507;1317;97885;-74
2021/12/10 03:32:05;;;;;;;70.60;36.50;;;;;;;0.46;76.94;97687.40;103462;1319;110914;-74
2021/12/10 03:34:35;;;;;;;71.00;36.60;;;;;;;0.47;76.93;97681.98;103398;1317;97891;-74
2021/12/10 03:37:05;;;;;;;70.70;35.50;;;;;;;0.48;76.86;97685.76;103422;1313;107639;-74
2021/12/10 03:39:33;;;;;;;73.60;35.40;;;;;;;0.50;76.85;97676.92;103340;1313;97975;-74
2021/12/10 03:42:04;;;;;;;75.60;38.70;;;;;;;0.51;76.98;97670.42;103422;1319;97888;-74
2021/12/10 03:44:32;;;;;;;77.60;38.40;;;;;;;0.51;76.81;97661.16;103411;1317;110875;-73
2021/12/10 03:47:04;;;;;;;69.80;35.10;;;;;;;0.50;76.81;97671.17;103449;1316;95935;-74
2021/12/10 03:49:33;;;;;;;71.80;34.60;;;;;;;0.49;76.75;97686.75;103397;1316;107849;-75
2021/12/10 03:52:03;;;;;;;69.50;35.30;;;;;;;0.48;76.90;97696.55;103464;1313;97972;-75
2021/12/10 03:54:31;;;;;;;68.70;34.20;;;;;;;0.49;76.82;97696.84;103428;1316;95284;-76
2021/12/10 03:56:59;;;;;;;66.30;31.40;;;;;;;0.47;76.60;97704.96;103434;1319;110407;-74
2021/12/10 03:59:30;;;;;;;69.00;33.80;;;;;;;0.42;76.68;97707.48;103439;1319;95167;-76
2021/12/10 04:01:58;;;;;;;71.10;32.40;;;;;;;0.40;76.81;97711.09;103442;1313;106272;-74
2021/12/10 04:04:30;;;;;;;72.00;36.50;;;;;;;0.39;76.79;97703.86;103410;1316;97892;-74
2021/12/10 04:07:04;;;;;;;65.90;33.00;;;;;;;0.38;76.89;97690.62;103456;1317;97817;-74
2021/12/10 04:09:32;;;;;;;65.10;33.10;;;;;;;0.41;76.90;97699.19;103431;1319;110390;-73
2021/12/10 04:12:01;;;;;;;70.00;35.90;;;;;;;0.43;76.91;97697.52;103386;1313;95198;-74
2021/12/10 04:14:28;;;;;;;67.50;33.70;;;;;;;0.45;76.86;97698.11;103474;1318;107596;-75
2021/12/10 04:16:57;;;;;;;68.90;36.10;;;;;;;0.47;76.93;97697.65;103347;1319;97844;-75
2021/12/10 04:19:28;;;;;;;70.60;33.80;;;;;;;0.48;76.99;97692.21;103480;1313;96365;-74
2021/12/10 04:21:57;;;;;;;72.60;35.10;;;;;;;0.50;76.84;97691.76;103413;1315;112110;-74
2021/12/10 04:24:31;;;;;;;68.00;34.00;;;;;;;0.51;76.98;97693.80;103535;1317;98525;-76
2021/12/10 04:27:01;;;;;;;69.10;35.10;;;;;;;0.52;76.88;97690.56;103452;1318;107887;-76
2021/12/10 04:29:30;;;;;;;68.80;34.10;;;;;;;0.54;76.98;97695.73;103480;1319;97974;-76
2021/12/10 04:31:59;;;;;;;72.30;35.60;;;;;;;0.55;77.05;97697.59;103489;1316;97950;-74
2021/12/10 04:34:28;;;;;;;72.20;35.50;;;;;;;0.56;76.85;97703.43;103469;1313;111617;-76
2021/12/10 04:36:59;;;;;;;70.50;35.40;;;;;;;0.57;76.87;97688.95;103425;1313;95263;-76
2021/12/10 04:39:29;;;;;;;69.20;32.60;;;;;;;0.57;76.76;97693.29;103394;1313;107781;-75
2021/12/10 04:41:57;;;;;;;66.60;34.60;;;;;;;0.54;76.77;97679.48;103332;1319;95424;-72
2021/12/10 04:44:27;;;;;;;72.10;36.20;;;;;;;0.53;76.82;97677.80;103338;1319;95257;-72
2021/12/10 04:46:55;;;;;;;70.60;34.30;;;;;;;0.55;76.87;97682.56;103347;1319;111395;-73
2021/12/10 04:49:23;;;;;;;66.40;34.00;;;;;;;0.57;76.99;97681.23;103398;1318;97969;-72
2021/12/10 04:51:54;;;;;;;69.60;36.20;;;;;;;0.59;76.95;97676.60;103342;1319;106370;-72
2021/12/10 04:54:24;;;;;;;76.40;35.80;;;;;;;0.59;76.83;97679.21;103367;1316;95389;-72
2021/12/10 04:56:57;;;;;;;79.60;38.50;;;;;;;0.58;76.72;97683.82;103400;1319;97986;-73
2021/12/10 04:59:31;;;;;;;74.50;34.80;;;;;;;0.55;76.85;97687.27;103395;1313;111466;-73
2021/12/10 05:02:02;;;;;;;77.80;38.80;;;;;;;0.57;76.85;97697.85;103243;1314;98308;-73
2021/12/10 05:04:31;;;;;;;71.70;34.30;;;;;;;0.58;76.93;97687.09;103232;1313;108421;-72
2021/12/10 05:06:59;;;;;;;67.60;33.80;;;;;;;0.61;76.94;97680.14;103276;1318;96480;-72
2021/12/10 05:09:27;;;;;;;70.10;34.30;;;;;;;0.63;76.99;97686.66;103352;1317;97877;-72
2021/12/10 05:11:56;;;;;;;66.40;34.60;;;;;;;0.64;76.90;97686.29;103108;1316;111055;-73
2021/12/10 05:14:25;;;;;;;65.50;33.30;;;;;;;0.64;76.83;97679.81;103338;1319;95246;-72
2021/12/10 05:16:59;;;;;;;61.90;31.20;;;;;;;0.65;76.78;97679.98;103508;1319;107877;-72
2021/12/10 05:19:28;;;;;;;65.80;31.10;;;;;;;0.63;76.69;97683.70;103469;1313;98646;-72
2021/12/10 05:21:59;;;;;;;64.80;34.10;;;;;;;0.60;76.67;97692.40;103442;1320;97791;-72
2021/12/10 05:24:29;;;;;;;63.70;32.00;;;;;;;0.58;76.62;97699.53;103387;1319;112430;-72
2021/12/10 05:26:59;;;;;;;62.10;33.10;;;;;;;0.54;76.64;97699.88;103457;1319;97966;-73
2021/12/10 05:29:28;;;;;;;62.10;31.50;;;;;;;0.54;76.86;97695.73;103379;1319;109265;-73
2021/12/10 05:31:58;;;;;;;67.20;33.60;;;;;;;0.53;76.68;97693.48;103458;1319;95193;-74
2021/12/10 05:34:27;;;;;;;70.70;35.10;;;;;;;0.50;76.74;97697.84;103529;1313;97949;-75
2021/12/10 05:36:56;;;;;;;65.10;31.80;;;;;;;0.52;76.93;97703.69;103447;1314;111501;-74
2021/12/10 05:39:25;;;;;;;67.70;35.10;;;;;;;0.51;76.81;97711.76;103426;1319;97898;-74
2021/12/10 05:41:54;;;;;;;71.00;34.40;;;;;;;0.50;76.69;97712.69;103370;1319;107896;-74
2021/12/10 05:44:22;;;;;;;70.80;33.40;;;;;;;0.45;76.75;97713.25;103461;1319;98393;-73
2021/12/10 05:46:50;;;;;;;71.60;34.50;;;;;;;0.44;76.87;97719.97;103187;1319;97859;-74
2021/12/10 05:49:18;;;;;;;73.10;35.40;;;;;;;0.43;76.73;97717.41;103428;1317;111516;-74
2021/12/10 05:51:47;;;;;;;60.00;30.10;;;;;;;0.42;76.70;97718.84;103478;1319;97895;-72
2021/12/10 05:54:15;;;;;;;68.70;33.90;;;;;;;0.41;76.76;97719.94;103460;1319;107601;-72
2021/12/10 05:56:43;;;;;;;71.40;34.30;;;;;;;0.38;76.73;97726.23;103410;1319;97978;-73
2021/12/10 05:59:11;;;;;;;67.80;33.10;;;;;;;0.33;76.75;97716.54;103450;1317;99118;-75
2021/12/10 06:01:39;;;;;;;69.80;33.20;;;;;;;0.28;76.90;97721.31;103434;1316;111436;-74
2021/12/10 06:04:08;;;;;;;67.50;30.40;;;;;;;0.24;76.90;97723.41;103379;1317;97128;-73
2021/12/10 06:06:36;;;;;;;68.00;32.90;;;;;;;0.18;77.06;97718.89;103402;1318;107792;-72
2021/12/10 06:09:08;;;;;;;67.50;31.90;;;;;;;0.13;77.06;97722.98;103387;1313;98011;-75
2021/12/10 06:11:36;;;;;;;66.30;31.90;;;;;;;0.11;77.19;97716.63;103465;1318;97995;-73
2021/12/10 06:14:06;;;;;;;68.30;32.40;;;;;;;0.08;77.29;97722.17;103396;1319;109704;-72
2021/12/10 06:16:35;;;;;;;65.00;30.90;;;;;;;0.06;77.07;97721.04;103403;1319;98008;-72
2021/12/10 06:19:06;;;;;;;66.60;33.10;;;;;;;0.06;77.28;97718.79;103411;1318;105983;-73
2021/12/10 06:21:37;;;;;;;68.20;32.70;;;;;;;0.04;77.14;97729.86;103432;1319;95280;-73
2021/12/10 06:24:08;;;;;;;72.70;35.80;;;;;;;0.04;77.31;97726.39;103483;1319;95249;-73
2021/12/10 06:26:36;;;;;;;66.20;34.00;;;;;;;0.02;77.23;97725.46;103463;1314;111530;-73
2021/12/10 06:29:07;;;;;;;67.60;33.50;;;;;;;0.02;77.38;97735.91;103495;1319;97945;-72
2021/12/10 06:31:36;;;;;;;68.50;34.00;;;;;;;0.04;77.39;97738.28;103440;1317;107822;-72
2021/12/10 06:34:09;;;;;;;72.60;33.20;;;;;;;0.03;77.34;97740.05;103382;1316;97970;-72
2021/12/10 06:36:37;;;;;;;68.60;34.80;;;;;;;0.04;77.38;97735.09;103351;1317;97891;-72
2021/12/10 06:39:07;;;;;;;71.00;34.10;;;;;;;0.07;77.39;97731.81;103200;1321;112484;-72
2021/12/10 06:41:35;;;;;;;62.20;31.20;;;;;;;0.09;77.32;97732.60;103457;1319;97953;-72
2021/12/10 06:44:04;;;;;;;67.00;32.80;;;;;;;0.10;77.33;97733.05;103244;1318;107675;-72
2021/12/10 06:46:34;;;;;;;65.30;32.70;;;;;;;0.12;77.41;97727.41;103409;1313;98007;-72
2021/12/10 06:49:03;;;;;;;71.20;33.10;;;;;;;0.13;77.44;97729.91;103503;1314;97895;-72
2021/12/10 06:51:31;;;;;;;68.00;33.60;;;;;;;0.16;77.37;97736.42;103377;1313;111164;-73
2021/12/10 06:54:00;;;;;;;69.90;36.10;;;;;;;0.18;77.34;97734.76;103390;1317;98375;-74
2021/12/10 06:56:29;;;;;;;73.10;37.80;;;;;;;0.22;77.41;97729.81;103360;1319;107848;-72
2021/12/10 06:58:57;;;;;;;73.30;36.80;;;;;;;0.25;77.43;97723.06;103414;1320;97968;-72
2021/12/10 07:01:31;;;;;;;75.50;38.10;;;;;;;0.27;77.40;97725.90;103361;1318;97892;-73
2021/12/10 07:04:04;;;;;;;84.50;39.30;;;;;;;0.29;77.33;97726.16;103317;1319;111165;-74
2021/12/10 07:06:32;;;;;;;83.90;36.50;;;;;;;0.28;77.39;97726.02;103433;1319;97863;-73
2021/12/10 07:09:04;;;;;;;79.30;36.80;;;;;;;0.31;77.50;97727.95;103427;1319;107867;-72
2021/12/10 07:11:33;;;;;;;80.40;36.10;;;;;;;0.36;77.56;97714.81;103486;1319;95255;-73
2021/12/10 07:14:01;;;;;;;72.40;36.80;;;;;;;0.41;77.56;97722.73;103456;1319;97869;-72
2021/12/10 07:16:31;;;;;;;70.80;36.50;;;;;;;0.45;77.59;97735.05;103407;1318;111532;-74
2021/12/10 07:19:02;;;;;;;71.50;35.50;;;;;;;0.50;77.52;97733.43;103468;1319;97991;-73
2021/12/10 07:21:31;;;;;;;72.70;36.90;;;;;;;0.55;77.46;97729.48;103409;1313;106281;-73
2021/12/10 07:24:04;;;;;;;74.60;37.30;;;;;;;0.63;77.62;97720.00;103450;1313;97988;-72
2021/12/10 07:26:33;;;;;;;70.90;34.60;;;;;;;0.69;77.35;97722.98;103486;1319;97897;-73
2021/12/10 07:29:02;;;;;;;68.10;36.10;;;;;;;0.71;77.36;97735.77;103459;1313;112185;-73
2021/12/10 07:31:33;;;;;;;77.20;34.70;;;;;;;0.74;77.65;97741.73;103366;1319;95992;-73
2021/12/10 07:34:02;;;;;;;73.30;37.70;;;;;;;0.80;77.72;97741.09;103312;1319;107744;-73
2021/12/10 07:36:30;;;;;;;78.90;38.30;;;;;;;0.88;77.53;97741.16;103319;1317;97992;-74
2021/12/10 07:39:00;;;;;;;72.90;35.80;;;;;;;0.96;77.62;97742.15;103392;1319;97817;-73
2021/12/10 07:41:29;;;;;;;72.50;37.20;;;;;;;1.02;77.50;97751.40;103346;1319;111611;-73
2021/12/10 07:43:57;;;;;;;78.60;40.90;;;;;;;1.07;77.76;97751.15;103444;1319;97866;-74
2021/12/10 07:46:27;;;;;;;87.00;47.10;;;;;;;1.12;77.69;97750.70;103262;1317;107861;-73
2021/12/10 07:48:57;;;;;;;94.10;47.80;;;;;;;1.17;77.69;97738.54;103347;1319;97769;-73
2021/12/10 07:51:31;;;;;;;96.80;48.20;;;;;;;1.21;77.83;97730.31;103344;1319;98140;-74
2021/12/10 07:54:01;;;;;;;90.40;46.40;;;;;;;1.27;77.55;97721.58;103296;1317;111303;-74
2021/12/10 07:56:32;;;;;;;90.80;46.90;;;;;;;1.31;77.67;97722.41;103323;1320;96632;-72
2021/12/10 07:59:01;;;;;;;94.70;46.60;;;;;;;1.35;77.61;97730.94;103318;1319;107873;-74
2021/12/10 08:01:32;;;;;;;96.50;48.30;;;;;;;1.38;77.77;97728.86;103323;1313;98528;-73
2021/12/10 08:04:04;;;;;;;95.00;47.30;;;;;;;1.40;77.49;97729.23;103396;1319;97987;-73
2021/12/10 08:06:35;;;;;;;95.50;49.50;;;;;;;1.43;77.31;97724.20;103310;1319;111490;-73
2021/12/10 08:09:06;;;;;;;100.50;53.40;;;;;;;1.47;77.46;97736.16;103399;1319;97914;-71
2021/12/10 08:11:35;;;;;;;113.20;59.60;;;;;;;1.54;77.35;97740.66;103376;1319;106424;-72
2021/12/10 08:14:11;;;;;;;136.70;67.80;;;;;;;1.60;77.63;97746.26;103435;1318;98528;-72
2021/12/10 08:16:39;;;;;;;153.50;71.40;;;;;;;1.66;77.64;97738.63;103374;1318;97810;-71
2021/12/10 08:19:11;;;;;;;134.30;63.90;;;;;;;1.69;77.53;97734.03;103334;1319;111505;-72
2021/12/10 08:21:45;;;;;;;111.00;53.20;;;;;;;1.72;77.47;97734.91;103302;1319;95257;-75
2021/12/10 08:24:13;;;;;;;100.10;49.50;;;;;;;1.75;77.34;97737.38;103355;1319;108293;-75
2021/12/10 08:26:41;;;;;;;95.30;49.60;;;;;;;1.74;77.42;97730.25;103398;1313;95990;-74
2021/12/10 08:29:15;;;;;;;96.10;48.20;;;;;;;1.76;77.41;97728.07;103409;1313;98457;-74
2021/12/10 08:31:43;;;;;;;105.40;52.40;;;;;;;1.80;77.49;97744.66;103470;1317;110036;-72
2021/12/10 08:34:11;;;;;;;106.30;49.30;;;;;;;1.83;77.59;97750.38;103339;1318;97975;-74
2021/12/10 08:36:44;;;;;;;104.70;49.70;;;;;;;1.84;77.24;97752.23;103336;1316;109116;-73
2021/12/10 08:39:16;;;;;;;103.30;49.90;;;;;;;1.87;77.57;97753.64;103330;1317;97905;-73
2021/12/10 08:41:44;;;;;;;100.30;50.50;;;;;;;1.91;77.67;97753.25;103384;1319;98020;-75
2021/12/10 08:44:15;;;;;;;91.20;45.90;;;;;;;1.95;77.52;97749.33;103287;1317;111413;-74
2021/12/10 08:46:45;;;;;;;88.80;46.30;;;;;;;1.99;77.48;97746.30;103341;1318;97899;-74
2021/12/10 08:49:15;;;;;;;91.00;46.20;;;;;;;2.02;77.58;97748.41;103431;1317;107847;-74
2021/12/10 08:51:49;;;;;;;103.70;50.40;;;;;;;2.04;77.30;97749.52;103358;1319;97921;-75
2021/12/10 08:54:23;;;;;;;98.10;48.30;;;;;;;2.05;77.74;97749.08;103403;1317;98010;-76
2021/12/10 08:56:52;;;;;;;90.10;46.70;;;;;;;2.07;77.17;97752.84;103302;1319;111456;-74
2021/12/10 08:59:23;;;;;;;96.50;48.20;;;;;;;2.10;77.67;97758.64;103367;1314;97892;-74
2021/12/10 09:01:55;;;;;;;78.30;40.60;;;;;;;2.11;77.46;97765.38;103268;1313;107470;-76
2021/12/10 09:04:26;;;;;;;83.00;43.70;;;;;;;2.02;77.45;97767.63;103235;1319;97866;-74
2021/12/10 09:07:00;;;;;;;82.00;43.60;;;;;;;1.98;77.44;97757.05;103383;1319;97865;-75
2021/12/10 09:09:30;;;;;;;89.30;45.80;;;;;;;2.02;77.54;97756.62;103373;1319;109627;-76
2021/12/10 09:12:04;;;;;;;88.80;45.20;;;;;;;2.07;77.73;97753.34;103298;1317;97067;-76
2021/12/10 09:14:40;;;;;;;95.70;46.40;;;;;;;2.13;77.71;97746.58;103322;1317;107762;-75
2021/12/10 09:17:13;;;;;;;92.80;48.30;;;;;;;2.17;77.64;97739.14;103343;1313;97908;-75
2021/12/10 09:19:43;;;;;;;92.20;48.50;;;;;;;2.22;77.84;97739.55;103366;1314;97755;-76
2021/12/10 09:22:11;;;;;;;99.70;51.20;;;;;;;2.27;77.69;97747.52;103329;1314;111345;-76
2021/12/10 09:24:44;;;;;;;113.20;61.00;;;;;;;2.29;77.74;97740.34;103302;1319;97949;-75
2021/12/10 09:27:14;;;;;;;106.50;61.00;;;;;;;2.32;77.73;97739.98;103315;1318;108551;-77
2021/12/10 09:29:46;;;;;;;108.10;60.70;;;;;;;2.34;77.45;97741.23;103399;1313;97917;-76
2021/12/10 09:32:20;;;;;;;99.50;52.40;;;;;;;2.35;77.36;97752.73;103381;1319;95386;-76
2021/12/10 09:34:49;;;;;;;97.10;51.40;;;;;;;2.37;77.45;97754.21;103426;1316;109571;-73
2021/12/10 09:37:21;;;;;;;100.50;55.60;;;;;;;2.38;77.36;97750.33;103388;1317;97856;-74
2021/12/10 09:39:52;;;;;;;101.80;55.00;;;;;;;2.37;77.19;97741.41;103376;1313;107789;-71
2021/12/10 09:42:22;;;;;;;91.70;49.70;;;;;;;2.38;77.28;97735.41;103221;1313;97898;-75
2021/12/10 09:44:54;;;;;;;98.50;49.90;;;;;;;2.40;77.56;97735.14;103284;1317;97947;-75
2021/12/10 09:47:23;;;;;;;90.30;49.40;;;;;;;2.42;77.50;97724.36;103236;1313;111129;-75
2021/12/10 09:49:54;;;;;;;91.80;49.50;;;;;;;2.41;77.47;97718.28;103041;1319;97943;-76
2021/12/10 09:52:27;;;;;;;76.60;41.10;;;;;;;2.43;77.25;97722.40;103276;1317;107862;-76
2021/12/10 09:54:57;;;;;;;72.30;37.00;;;;;;;2.41;77.27;97720.73;103236;1314;96022;-75
2021/12/10 09:57:30;;;;;;;75.20;42.70;;;;;;;2.36;77.54;97727.50;103332;1319;97937;-76
2021/12/10 10:00:36;;;;;;;71.20;36.70;;;;;;;2.33;77.56;97731.17;103260;1316;111498;-74
2021/12/10 10:03:09;;;;;;;84.20;44.50;;;;;;;2.32;77.50;97722.19;103297;1314;97907;-75
2021/12/10 10:05:43;;;;;;;85.40;44.80;;;;;;;2.33;77.79;97720.83;103300;1319;107843;-74
2021/12/10 10:08:16;;;;;;;86.40;48.30;;;;;;;2.30;77.19;97722.44;103288;1314;97885;-76
2021/12/10 10:10:50;;;;;;;84.30;45.60;;;;;;;2.26;77.24;97718.11;103119;1319;97961;-75
2021/12/10 10:13:27;;;;;;;91.00;50.00;;;;;;;2.27;77.48;97716.16;103271;1312;112499;-76
2021/12/10 10:15:59;;;;;;;84.70;47.00;;;;;;;2.27;77.66;97715.95;103317;1314;97757;-76
2021/12/10 10:18:33;;;;;;;107.70;57.30;;;;;;;2.26;77.46;97722.85;103338;1317;107838;-76
2021/12/10 10:21:10;;;;;;;102.60;57.70;;;;;;;2.24;77.50;97721.76;103368;1319;98520;-75
2021/12/10 10:23:42;;;;;;;131.10;76.20;;;;;;;2.19;77.52;97715.73;103381;1316;97994;-75
2021/12/10 10:26:19;;;;;;;127.30;75.50;;;;;;;2.22;77.32;97715.05;103408;1313;111854;-76
2021/12/10 10:28:48;;;;;;;132.10;78.70;;;;;;;2.28;77.55;97709.77;103373;1313;95228;-74
2021/12/10 10:31:22;;;;;;;121.00;70.40;;;;;;;2.34;77.58;97715.89;103153;1314;107864;-75
2021/12/10 10:33:56;;;;;;;104.50;57.60;;;;;;;2.39;77.56;97722.44;103436;1319;95945;-75
2021/12/10 10:36:32;;;;;;;107.90;55.30;;;;;;;2.39;77.39;97722.95;103392;1319;97876;-75
2021/12/10 10:39:10;;;;;;;99.30;52.60;;;;;;;2.39;77.03;97723.52;103310;1317;111537;-76
2021/12/10 10:41:48;;;;;;;101.00;53.30;;;;;;;2.37;77.17;97723.73;103403;1314;95331;-75
2021/12/10 10:44:18;;;;;;;104.10;53.10;;;;;;;2.37;77.09;97727.10;103467;1319;107813;-76
2021/12/10 10:46:55;;;;;;;105.90;58.40;;;;;;;2.37;77.14;97730.56;103205;1310;201302;-76
2021/12/10 10:49:32;;;;;;;110.10;57.60;;;;;;;2.36;77.48;97732.55;103321;1313;96313;-77
2021/12/10 10:52:34;;;;;;;105.80;57.30;;;;;;;2.38;77.13;97736.15;103265;1314;111507;-76
2021/12/10 10:55:08;;;;;;;106.40;56.60;;;;;;;2.39;77.41;97738.17;103402;1314;95268;-75
2021/12/10 10:57:40;;;;;;;100.60;52.70;;;;;;;2.40;77.04;97727.27;103239;1317;107925;-76
2021/12/10 11:00:50;;;;;;;101.30;53.30;;;;;;;2.41;77.20;97723.52;103595;1313;97909;-75
2021/12/10 11:03:47;;;;;;;100.80;53.90;;;;;;;2.42;77.44;97727.33;104029;1318;95600;-75
2021/12/10 11:06:25;;;;;;;96.00;50.20;;;;;;;2.46;77.35;97732.48;103357;1317;111442;-74
2021/12/10 11:09:04;;;;;;;106.40;57.20;;;;;;;2.49;77.08;97731.08;103422;1319;97978;-76
2021/12/10 11:11:35;;;;;;;79.70;43.70;;;;;;;2.52;77.34;97734.55;103280;1314;108162;-76
2021/12/10 11:14:38;;;;;;;73.50;40.20;;;;;;;2.56;77.16;97739.81;103328;1313;97982;-76
2021/12/10 11:17:16;;;;;;;51.80;29.10;;;;;;;2.60;77.35;97737.61;103194;1313;98075;-78
2021/12/10 11:20:08;;;;;;;56.30;30.60;;;;;;;2.65;77.47;97735.03;103271;1317;111482;-77
2021/12/10 11:22:47;;;;;;;52.40;26.80;;;;;;;2.71;77.73;97725.39;103380;1314;98559;-76
2021/12/10 11:25:26;;;;;;;46.50;26.20;;;;;;;2.76;77.41;97716.47;103324;1313;107893;-75
2021/12/10 11:28:11;;;;;;;59.40;33.70;;;;;;;2.82;77.41;97714.17;103428;1313;98004;-76
2021/12/10 11:30:43;;;;;;;58.00;30.70;;;;;;;2.89;77.32;97714.13;103444;1312;97887;-76
2021/12/10 11:33:17;;;;;;;70.90;39.70;;;;;;;2.94;77.61;97720.45;103240;1316;109780;-76
2021/12/10 11:36:15;;;;;;;81.60;45.80;;;;;;;3.00;77.61;97724.47;103514;1314;95270;-76
2021/12/10 11:38:49;;;;;;;68.70;40.30;;;;;;;3.06;77.28;97729.34;103495;1319;107827;-75
2021/12/10 11:41:23;;;;;;;94.50;50.60;;;;;;;3.10;77.27;97725.41;103550;1313;97778;-76
2021/12/10 11:46:51;;;;;;;130.70;71.50;;;;;;;3.17;77.57;97719.35;103481;1314;111039;-76
2021/12/10 11:49:28;;;;;;;116.90;65.80;;;;;;;3.21;77.43;97719.12;103367;1319;98755;-76